createdAt,value
2019-02-19T00:02:10.691Z,10.72
2019-02-19T00:04:38.165Z,10.73
2019-02-19T00:07:05.615Z,10.83
2019-02-19T00:09:33.087Z,10.72
2019-02-19T00:12:00.574Z,10.78
2019-02-19T00:14:28.010Z,10.61
2019-02-19T00:16:55.778Z,10.72
2019-02-19T00:19:23.862Z,10.81
2019-02-19T00:21:51.541Z,10.75
2019-02-19T00:24:19.140Z,10.78
2019-02-19T00:26:46.649Z,10.67
2019-02-19T00:29:14.111Z,11.00
2019-02-19T00:31:41.581Z,10.69
2019-02-19T00:34:09.072Z,10.68
2019-02-19T00:36:36.543Z,10.98
2019-02-19T00:39:03.995Z,10.56
2019-02-19T00:41:31.446Z,10.76
2019-02-19T00:43:58.917Z,10.77
2019-02-19T00:46:26.366Z,10.65
2019-02-19T00:48:53.830Z,10.77
2019-02-19T00:51:21.268Z,10.90
2019-02-19T00:53:48.708Z,10.85
2019-02-19T00:56:16.169Z,10.59
2019-02-19T00:58:43.618Z,10.73
2019-02-19T01:01:11.092Z,10.61
2019-02-19T01:03:38.527Z,10.56
2019-02-19T01:06:05.988Z,10.77
2019-02-19T01:08:33.435Z,10.69
2019-02-19T01:11:00.907Z,10.69
2019-02-19T01:13:28.349Z,10.47
2019-02-19T01:15:55.793Z,10.51
2019-02-19T01:18:23.248Z,10.50
2019-02-19T01:20:50.771Z,10.34
2019-02-19T01:23:18.220Z,10.41
2019-02-19T01:25:45.677Z,10.41
2019-02-19T01:28:13.113Z,10.31
2019-02-19T01:30:40.645Z,10.22
2019-02-19T01:33:08.080Z,10.26
2019-02-19T01:35:35.536Z,10.08
2019-02-19T01:38:03.737Z,10.21
2019-02-19T01:40:31.233Z,10.10
2019-02-19T01:42:58.686Z,9.92
2019-02-19T01:45:33.718Z,9.81
2019-02-19T01:47:53.678Z,10.12
2019-02-19T01:50:21.161Z,9.91
2019-02-19T01:52:48.638Z,10.06
2019-02-19T01:55:16.099Z,9.92
2019-02-19T01:57:43.579Z,9.85
2019-02-19T02:00:11.053Z,9.85
2019-02-19T02:02:38.514Z,9.70
2019-02-19T02:05:05.978Z,9.71
2019-02-19T02:07:34.349Z,9.84
2019-02-19T02:10:01.792Z,9.59
2019-02-19T02:12:29.241Z,9.58
2019-02-19T02:14:56.687Z,9.49
2019-02-19T02:17:24.119Z,9.49
2019-02-19T02:19:51.564Z,9.70
2019-02-19T02:22:19.075Z,9.44
2019-02-19T02:24:46.536Z,9.35
2019-02-19T02:27:13.993Z,9.54
2019-02-19T02:29:41.438Z,9.36
2019-02-19T02:32:08.885Z,9.19
2019-02-19T02:34:36.391Z,9.33
2019-02-19T02:37:04.776Z,9.22
2019-02-19T02:39:32.225Z,9.27
2019-02-19T02:41:59.676Z,9.24
2019-02-19T02:44:27.167Z,9.57
2019-02-19T02:46:54.618Z,9.37
2019-02-19T02:49:22.106Z,9.43
2019-02-19T02:51:49.588Z,9.44
2019-02-19T02:54:17.036Z,9.48
2019-02-19T02:56:44.495Z,9.50
2019-02-19T02:59:11.954Z,9.20
2019-02-19T03:01:39.416Z,9.09
2019-02-19T03:04:06.870Z,9.14
2019-02-19T03:06:34.672Z,9.14
2019-02-19T03:09:02.129Z,8.90
2019-02-19T03:11:29.597Z,8.85
2019-02-19T03:13:57.995Z,8.93
2019-02-19T03:16:25.479Z,8.98
2019-02-19T03:18:52.990Z,8.84
2019-02-19T03:21:20.446Z,8.82
2019-02-19T03:23:47.931Z,8.87
2019-02-19T03:26:15.386Z,9.00
2019-02-19T03:28:42.882Z,9.00
2019-02-19T03:31:10.308Z,9.17
2019-02-19T03:33:37.773Z,8.92
2019-02-19T03:36:06.055Z,8.96
2019-02-19T03:38:33.493Z,9.05
2019-02-19T03:41:01.001Z,8.88
2019-02-19T03:43:28.518Z,8.90
2019-02-19T03:45:55.948Z,8.84
2019-02-19T03:48:23.416Z,8.99
2019-02-19T03:50:50.890Z,9.01
2019-02-19T03:53:18.340Z,8.64
2019-02-19T03:55:45.814Z,8.82
2019-02-19T03:58:13.259Z,8.68
2019-02-19T04:00:40.729Z,8.62
2019-02-19T04:03:08.181Z,8.93
2019-02-19T04:05:36.546Z,8.82
2019-02-19T04:08:03.978Z,8.78
2019-02-19T04:10:31.423Z,8.65
2019-02-19T04:12:58.909Z,8.46
2019-02-19T04:15:26.389Z,8.74
2019-02-19T04:17:53.908Z,8.70
2019-02-19T04:20:21.385Z,8.55
2019-02-19T04:22:48.858Z,8.57
2019-02-19T04:25:16.301Z,8.38
2019-02-19T04:27:43.737Z,8.41
2019-02-19T04:30:11.212Z,8.57
2019-02-19T04:32:38.664Z,8.64
2019-02-19T04:35:07.085Z,8.74
2019-02-19T04:37:34.571Z,8.59
2019-02-19T04:40:02.065Z,8.84
2019-02-19T04:42:32.478Z,8.82
2019-02-19T04:44:59.948Z,8.54
2019-02-19T04:47:27.464Z,8.40
2019-02-19T04:49:54.926Z,8.65
2019-02-19T04:52:22.423Z,8.55
2019-02-19T04:54:49.869Z,8.66
2019-02-19T04:57:17.331Z,8.69
2019-02-19T04:59:44.771Z,8.67
2019-02-19T05:02:12.282Z,8.66
2019-02-19T05:04:40.025Z,8.67
2019-02-19T05:07:07.614Z,8.61
2019-02-19T05:09:35.062Z,8.55
2019-02-19T05:12:02.510Z,8.42
2019-02-19T05:14:29.966Z,8.73
2019-02-19T05:16:57.453Z,8.71
2019-02-19T05:19:24.927Z,8.49
2019-02-19T05:21:52.417Z,8.55
2019-02-19T05:24:19.874Z,8.74
2019-02-19T05:26:47.332Z,8.80
2019-02-19T05:29:14.814Z,8.77
2019-02-19T05:31:42.300Z,8.55
2019-02-19T05:34:09.748Z,8.86
2019-02-19T05:36:38.086Z,8.50
2019-02-19T05:39:07.540Z,8.73
2019-02-19T05:41:34.971Z,8.61
2019-02-19T05:44:02.457Z,8.65
2019-02-19T05:46:29.920Z,8.57
2019-02-19T05:48:57.385Z,8.42
2019-02-19T05:51:25.714Z,8.67
2019-02-19T05:53:53.186Z,8.44
2019-02-19T05:56:20.637Z,8.35
2019-02-19T05:58:48.097Z,8.44
2019-02-19T06:01:15.559Z,8.61
2019-02-19T06:03:43.026Z,8.49
2019-02-19T06:06:10.504Z,8.30
2019-02-19T06:08:38.622Z,8.56
2019-02-19T06:11:06.093Z,8.51
2019-02-19T06:13:33.574Z,8.25
2019-02-19T06:16:01.078Z,8.38
2019-02-19T06:18:28.539Z,8.49
2019-02-19T06:20:56.004Z,8.41
2019-02-19T06:23:23.463Z,8.45
2019-02-19T06:25:50.912Z,8.31
2019-02-19T06:28:18.387Z,8.62
2019-02-19T06:30:45.866Z,8.58
2019-02-19T06:33:13.374Z,8.32
2019-02-19T06:35:41.815Z,8.46
2019-02-19T06:38:09.352Z,8.48
2019-02-19T06:40:36.815Z,8.54
2019-02-19T06:43:04.285Z,8.36
2019-02-19T06:45:31.748Z,8.16
2019-02-19T06:47:59.275Z,8.14
2019-02-19T06:50:26.754Z,8.25
2019-02-19T06:52:54.212Z,8.30
2019-02-19T06:55:21.711Z,8.41
2019-02-19T06:57:50.164Z,8.15
2019-02-19T07:00:17.618Z,8.20
2019-02-19T07:02:45.896Z,8.42
2019-02-19T07:05:13.323Z,8.46
2019-02-19T07:07:40.796Z,8.30
2019-02-19T07:10:08.223Z,8.36
2019-02-19T07:12:35.684Z,8.11
2019-02-19T07:15:03.157Z,8.16
2019-02-19T07:17:30.589Z,8.02
2019-02-19T07:19:58.087Z,8.16
2019-02-19T07:22:25.532Z,8.25
2019-02-19T07:24:53.026Z,8.07
2019-02-19T07:27:20.515Z,8.19
2019-02-19T07:29:47.973Z,8.15
2019-02-19T07:32:15.457Z,8.03
2019-02-19T07:34:42.931Z,8.16
2019-02-19T07:37:10.413Z,7.95
2019-02-19T07:39:37.858Z,8.17
2019-02-19T07:42:05.361Z,8.20
2019-02-19T07:44:32.808Z,8.21
2019-02-19T07:47:00.256Z,8.08
2019-02-19T07:49:27.702Z,8.04
2019-02-19T07:51:55.187Z,8.28
2019-02-19T07:54:22.649Z,8.03
2019-02-19T07:56:50.954Z,8.09
2019-02-19T07:59:18.492Z,8.04
2019-02-19T08:01:45.970Z,8.04
2019-02-19T08:04:13.424Z,7.93
2019-02-19T08:06:40.911Z,8.14
2019-02-19T08:09:08.368Z,8.00
2019-02-19T08:11:35.865Z,7.90
2019-02-19T08:14:03.311Z,8.19
2019-02-19T08:16:30.746Z,8.08
2019-02-19T08:18:58.214Z,7.98
2019-02-19T08:21:25.759Z,8.08
2019-02-19T08:23:53.228Z,7.98
2019-02-19T08:26:20.663Z,8.19
2019-02-19T08:28:48.137Z,8.03
2019-02-19T08:31:16.495Z,8.02
2019-02-19T08:33:43.970Z,8.16
2019-02-19T08:36:11.396Z,8.21
2019-02-19T08:38:38.896Z,7.78
2019-02-19T08:41:06.390Z,8.04
2019-02-19T08:43:33.859Z,7.84
2019-02-19T08:46:01.311Z,7.99
2019-02-19T08:48:28.781Z,8.16
2019-02-19T08:50:56.249Z,8.03
2019-02-19T08:53:23.694Z,8.10
2019-02-19T08:55:51.168Z,7.98
2019-02-19T08:58:18.620Z,8.30
2019-02-19T09:00:46.068Z,8.30
2019-02-19T09:03:13.534Z,8.15
2019-02-19T09:05:41.015Z,8.10
2019-02-19T09:08:08.456Z,8.00
2019-02-19T09:10:35.906Z,8.13
2019-02-19T09:13:03.349Z,8.25
2019-02-19T09:15:30.854Z,8.21
2019-02-19T09:17:58.326Z,8.16
2019-02-19T09:20:25.791Z,8.25
2019-02-19T09:22:53.247Z,8.26
2019-02-19T09:25:20.681Z,8.41
2019-02-19T09:27:48.128Z,8.49
2019-02-19T09:30:15.582Z,8.44
2019-02-19T09:32:43.069Z,8.62
2019-02-19T09:35:10.542Z,8.82
2019-02-19T09:37:38.025Z,8.80
2019-02-19T09:40:05.504Z,8.58
2019-02-19T09:42:32.927Z,8.82
2019-02-19T09:45:00.418Z,8.88
2019-02-19T09:47:27.863Z,9.09
2019-02-19T09:49:55.319Z,8.77
2019-02-19T09:52:22.769Z,8.97
2019-02-19T09:54:50.242Z,9.24
2019-02-19T09:57:18.679Z,9.02
2019-02-19T09:59:46.180Z,9.10
2019-02-19T10:02:13.659Z,9.12
2019-02-19T10:04:41.158Z,8.96
2019-02-19T10:07:08.634Z,8.97
2019-02-19T10:09:36.189Z,9.06
2019-02-19T10:12:03.675Z,9.22
2019-02-19T10:14:31.150Z,9.13
2019-02-19T10:16:58.614Z,9.24
2019-02-19T10:19:26.180Z,9.24
2019-02-19T10:21:53.595Z,9.23
2019-02-19T10:24:21.098Z,9.56
2019-02-19T10:26:49.723Z,9.58
2019-02-19T10:29:16.057Z,9.44
2019-02-19T10:31:44.351Z,9.69
2019-02-19T10:34:11.942Z,9.78
2019-02-19T10:36:39.371Z,9.49
2019-02-19T10:39:06.893Z,9.72
2019-02-19T10:41:34.342Z,9.82
2019-02-19T10:44:01.810Z,9.79
2019-02-19T10:46:29.233Z,9.69
2019-02-19T10:48:56.641Z,9.92
2019-02-19T10:51:24.190Z,9.81
2019-02-19T10:53:51.654Z,9.87
2019-02-19T10:56:19.096Z,9.67
2019-02-19T10:58:46.552Z,9.99
2019-02-19T11:01:14.201Z,10.29
2019-02-19T11:03:41.647Z,10.15
2019-02-19T11:06:09.114Z,10.10
2019-02-19T11:08:36.555Z,10.22
2019-02-19T11:11:04.012Z,10.14
2019-02-19T11:13:31.483Z,10.49
2019-02-19T11:15:58.934Z,10.36
2019-02-19T11:18:28.765Z,10.32
2019-02-19T11:20:53.899Z,10.31
2019-02-19T11:23:21.349Z,10.40
2019-02-19T11:25:48.818Z,10.11
2019-02-19T11:28:16.266Z,10.13
2019-02-19T11:30:44.649Z,10.09
2019-02-19T11:33:12.145Z,10.00
2019-02-19T11:35:40.237Z,9.69
2019-02-19T11:38:07.766Z,9.76
2019-02-19T11:40:35.272Z,9.62
2019-02-19T11:43:02.760Z,9.98
2019-02-19T11:45:30.205Z,10.26
2019-02-19T11:47:57.656Z,10.09
2019-02-19T11:50:25.145Z,10.31
2019-02-19T11:52:52.597Z,10.38
2019-02-19T11:55:20.046Z,10.24
2019-02-19T11:57:47.505Z,9.95
2019-02-19T12:00:15.162Z,9.84
2019-02-19T12:02:42.638Z,10.02
2019-02-19T12:05:10.093Z,9.77
2019-02-19T12:07:37.563Z,9.81
2019-02-19T12:10:05.017Z,9.80
2019-02-19T12:12:33.530Z,9.63
2019-02-19T12:15:01.078Z,9.95
2019-02-19T12:17:28.533Z,9.69
2019-02-19T12:19:56.005Z,9.94
2019-02-19T12:22:23.601Z,9.93
2019-02-19T12:24:51.075Z,9.94
2019-02-19T12:27:18.644Z,10.16
2019-02-19T12:29:46.170Z,9.99
2019-02-19T12:32:13.842Z,10.21
2019-02-19T12:34:41.350Z,10.41
2019-02-19T12:37:09.406Z,10.45
2019-02-19T12:39:36.943Z,10.03
2019-02-19T12:42:04.477Z,10.27
2019-02-19T12:44:31.923Z,9.98
2019-02-19T12:46:59.391Z,10.03
2019-02-19T12:49:26.913Z,10.06
2019-02-19T12:51:55.581Z,10.25
2019-02-19T12:54:21.895Z,9.98
2019-02-19T12:56:49.360Z,9.84
2019-02-19T12:59:16.823Z,9.85
2019-02-19T13:01:44.350Z,9.95
2019-02-19T13:04:11.897Z,10.13
2019-02-19T13:06:39.464Z,9.82
2019-02-19T13:09:06.903Z,9.91
2019-02-19T13:11:34.382Z,9.76
2019-02-19T13:14:02.449Z,9.98
2019-02-19T13:16:30.047Z,10.11
2019-02-19T13:19:03.298Z,10.22
2019-02-19T13:21:26.041Z,10.34
2019-02-19T13:23:53.562Z,10.34
2019-02-19T13:26:21.046Z,10.50
2019-02-19T13:28:48.477Z,10.61
2019-02-19T13:31:16.986Z,10.56
2019-02-19T13:33:44.450Z,10.80
2019-02-19T13:36:11.966Z,10.57
2019-02-19T13:38:39.446Z,10.47
2019-02-19T13:41:06.905Z,10.61
2019-02-19T13:43:34.411Z,10.67
2019-02-19T13:46:01.880Z,10.39
2019-02-19T13:48:29.336Z,10.61
2019-02-19T13:50:56.786Z,10.43
2019-02-19T13:53:25.170Z,10.59
2019-02-19T13:55:53.166Z,10.53
2019-02-19T13:58:20.760Z,10.34
2019-02-19T14:00:48.212Z,10.41
2019-02-19T14:03:15.688Z,10.51
2019-02-19T14:05:43.203Z,10.08
2019-02-19T14:08:14.585Z,10.30
2019-02-19T14:10:38.146Z,10.33
2019-02-19T14:13:05.616Z,10.44
2019-02-19T14:15:35.536Z,10.42
2019-02-19T14:18:02.968Z,10.32
2019-02-19T14:20:49.022Z,10.33
2019-02-19T14:23:30.386Z,10.29
2019-02-19T14:26:17.645Z,10.19
2019-02-19T14:28:45.148Z,10.23
2019-02-19T14:31:17.554Z,10.11
2019-02-19T14:33:48.937Z,10.07
2019-02-19T14:36:28.789Z,10.03
2019-02-19T14:39:15.869Z,10.04
2019-02-19T14:41:44.264Z,10.13
2019-02-19T14:44:18.059Z,10.07
2019-02-19T14:46:50.501Z,10.08
2019-02-19T14:49:30.103Z,9.92
2019-02-19T14:51:52.911Z,10.06
2019-02-19T14:54:21.291Z,9.99
2019-02-19T14:56:56.242Z,9.98
2019-02-19T14:59:29.214Z,9.94
2019-02-19T15:01:59.504Z,9.98
2019-02-19T15:04:42.802Z,10.24
2019-02-19T15:07:13.659Z,10.09
2019-02-19T15:09:46.915Z,10.16
2019-02-19T15:12:16.865Z,10.13
2019-02-19T15:14:50.755Z,10.13
2019-02-19T15:17:23.257Z,10.39
2019-02-19T15:19:56.333Z,10.25
2019-02-19T15:22:40.522Z,10.31
2019-02-19T15:25:12.430Z,10.16
2019-02-19T15:27:45.454Z,10.15
2019-02-19T15:30:16.721Z,10.28
2019-02-19T15:32:49.702Z,10.14
2019-02-19T15:35:37.005Z,10.11
2019-02-19T15:38:19.351Z,10.16
2019-02-19T15:40:50.240Z,9.91
2019-02-19T15:43:23.260Z,10.05
2019-02-19T15:46:07.293Z,10.03
2019-02-19T15:48:36.528Z,10.14
2019-02-19T15:51:09.431Z,10.00
2019-02-19T15:53:42.522Z,10.12
2019-02-19T15:56:17.389Z,10.07
2019-02-19T15:58:43.082Z,10.22
2019-02-19T16:01:16.266Z,10.28
2019-02-19T16:03:44.003Z,10.17
2019-02-19T16:06:23.219Z,10.13
2019-02-19T16:09:05.562Z,10.24
2019-02-19T16:11:35.474Z,10.17
2019-02-19T16:14:05.709Z,10.09
2019-02-19T16:16:45.053Z,9.86
2019-02-19T16:19:22.733Z,9.83
2019-02-19T16:21:53.708Z,10.01
2019-02-19T16:24:22.045Z,9.87
2019-02-19T16:26:53.035Z,9.93
2019-02-19T16:29:32.333Z,9.78
2019-02-19T16:31:59.866Z,9.81
2019-02-19T16:34:30.320Z,9.76
2019-02-19T16:37:07.731Z,9.94
2019-02-19T16:39:39.115Z,9.83
2019-02-19T16:42:08.294Z,9.86
2019-02-19T16:44:36.019Z,9.85
2019-02-19T16:47:09.115Z,9.87
2019-02-19T16:49:51.430Z,9.85
2019-02-19T16:52:19.213Z,10.02
2019-02-19T16:54:51.875Z,9.78
2019-02-19T16:57:35.683Z,9.99
2019-02-19T17:00:08.794Z,9.56
2019-02-19T17:02:40.763Z,9.80
2019-02-19T17:05:09.005Z,9.81
2019-02-19T17:07:39.883Z,9.83
2019-02-19T17:10:17.275Z,9.61
2019-02-19T17:13:01.386Z,9.66
2019-02-19T17:15:31.347Z,9.63
2019-02-19T17:18:13.687Z,9.57
2019-02-19T17:20:42.041Z,9.61
2019-02-19T17:23:11.319Z,9.72
2019-02-19T17:25:43.159Z,9.55
2019-02-19T17:28:10.976Z,9.46
2019-02-19T17:30:43.826Z,9.61
2019-02-19T17:33:26.166Z,9.55
2019-02-19T17:36:11.321Z,9.66
2019-02-19T17:38:45.262Z,9.50
2019-02-19T17:41:25.437Z,9.52
2019-02-19T17:43:58.327Z,9.66
2019-02-19T17:46:27.622Z,9.51
2019-02-19T17:49:05.758Z,9.41
2019-02-19T17:51:36.490Z,9.65
2019-02-19T17:54:22.716Z,9.41
2019-02-19T17:56:52.985Z,9.31
2019-02-19T17:59:24.842Z,9.35
2019-02-19T18:01:52.615Z,9.41
2019-02-19T18:04:20.921Z,9.57
2019-02-19T18:06:49.896Z,9.35
2019-02-19T18:09:37.188Z,9.38
2019-02-19T18:12:09.634Z,9.56
2019-02-19T18:14:40.439Z,9.31
2019-02-19T18:17:11.841Z,9.38
2019-02-19T18:19:39.301Z,9.41
2019-02-19T18:22:06.731Z,9.49
2019-02-19T18:24:34.179Z,9.08
2019-02-19T18:27:01.646Z,9.17
2019-02-19T18:29:29.195Z,9.17
2019-02-19T18:31:56.773Z,9.50
2019-02-19T18:34:24.294Z,9.26
2019-02-19T18:36:51.728Z,9.37
2019-02-19T18:39:19.207Z,9.23
2019-02-19T18:41:46.631Z,9.36
2019-02-19T18:44:14.079Z,9.25
2019-02-19T18:46:41.564Z,9.33
2019-02-19T18:49:09.034Z,9.18
2019-02-19T18:51:36.463Z,9.21
2019-02-19T18:54:03.970Z,9.36
2019-02-19T18:56:31.426Z,9.27
2019-02-19T18:58:58.912Z,9.25
2019-02-19T19:01:26.378Z,9.24
2019-02-19T19:03:53.817Z,9.21
2019-02-19T19:06:21.271Z,9.34
2019-02-19T19:08:48.812Z,9.14
2019-02-19T19:11:16.266Z,9.34
2019-02-19T19:13:43.714Z,9.25
2019-02-19T19:16:11.166Z,9.38
2019-02-19T19:18:38.621Z,9.41
2019-02-19T19:21:08.243Z,9.34
2019-02-19T19:23:33.581Z,9.01
2019-02-19T19:26:02.328Z,9.14
2019-02-19T19:28:30.350Z,9.04
2019-02-19T19:30:57.829Z,9.09
2019-02-19T19:33:25.284Z,9.14
2019-02-19T19:35:52.745Z,9.00
2019-02-19T19:38:20.179Z,9.23
2019-02-19T19:40:47.633Z,9.22
2019-02-19T19:43:15.138Z,9.17
2019-02-19T19:45:42.583Z,9.27
2019-02-19T19:48:10.056Z,8.95
2019-02-19T19:50:37.517Z,9.05
2019-02-19T19:53:04.983Z,9.22
2019-02-19T19:55:32.513Z,9.08
2019-02-19T19:57:59.974Z,9.01
2019-02-19T20:00:27.489Z,9.18
2019-02-19T20:02:54.975Z,8.95
2019-02-19T20:05:22.437Z,9.03
2019-02-19T20:07:49.878Z,9.03
2019-02-19T20:10:17.350Z,9.08
2019-02-19T20:12:44.816Z,9.15
2019-02-19T20:15:12.259Z,9.23
2019-02-19T20:17:39.720Z,9.22
2019-02-19T20:20:10.318Z,8.95
2019-02-19T20:22:37.814Z,8.86
2019-02-19T20:25:05.888Z,8.82
2019-02-19T20:27:33.359Z,9.11
2019-02-19T20:30:00.815Z,9.28
2019-02-19T20:32:28.297Z,8.83
2019-02-19T20:34:55.769Z,9.06
2019-02-19T20:37:23.221Z,9.08
2019-02-19T20:39:50.704Z,9.03
2019-02-19T20:42:18.188Z,8.91
2019-02-19T20:44:45.683Z,8.80
2019-02-19T20:47:13.129Z,8.83
2019-02-19T20:49:40.592Z,8.75
2019-02-19T20:52:08.122Z,9.09
2019-02-19T20:54:35.582Z,9.06
2019-02-19T20:57:03.906Z,8.95
2019-02-19T20:59:31.427Z,8.85
2019-02-19T21:01:58.887Z,8.68
2019-02-19T21:04:26.500Z,8.96
2019-02-19T21:06:53.980Z,9.02
2019-02-19T21:09:21.436Z,9.01
2019-02-19T21:11:48.875Z,8.91
2019-02-19T21:14:16.361Z,8.61
2019-02-19T21:16:44.007Z,8.62
2019-02-19T21:19:12.265Z,8.83
2019-02-19T21:21:44.984Z,8.57
2019-02-19T21:24:07.757Z,8.57
2019-02-19T21:26:35.242Z,8.74
2019-02-19T21:29:02.930Z,8.63
2019-02-19T21:31:30.401Z,8.48
2019-02-19T21:33:57.977Z,8.38
2019-02-19T21:36:25.562Z,8.72
2019-02-19T21:38:53.023Z,8.65
2019-02-19T21:41:20.468Z,8.77
2019-02-19T21:43:47.960Z,9.01
2019-02-19T21:46:15.435Z,8.68
2019-02-19T21:48:48.038Z,8.67
2019-02-19T21:51:10.517Z,8.63
2019-02-19T21:53:37.979Z,8.63
2019-02-19T21:56:05.398Z,8.89
2019-02-19T21:58:32.843Z,8.82
2019-02-19T22:01:00.269Z,8.85
2019-02-19T22:03:27.720Z,8.69
2019-02-19T22:05:55.160Z,8.71
2019-02-19T22:08:22.604Z,8.57
2019-02-19T22:10:50.058Z,8.63
2019-02-19T22:13:17.604Z,8.73
2019-02-19T22:15:45.094Z,8.87
2019-02-19T22:18:13.864Z,8.84
2019-02-19T22:20:41.349Z,8.92
2019-02-19T22:23:08.820Z,8.68
2019-02-19T22:25:36.306Z,8.72
2019-02-19T22:28:03.851Z,8.19
2019-02-19T22:30:31.255Z,8.60
2019-02-19T22:32:58.727Z,8.57
2019-02-19T22:35:26.173Z,8.49
2019-02-19T22:37:53.737Z,8.53
2019-02-19T22:40:21.150Z,8.56
2019-02-19T22:42:48.667Z,8.72
2019-02-19T22:45:16.190Z,8.55
2019-02-19T22:47:53.162Z,8.60
2019-02-19T22:50:12.950Z,8.49
2019-02-19T22:52:40.511Z,8.28
2019-02-19T22:55:22.887Z,8.33
2019-02-19T22:57:50.385Z,8.18
2019-02-19T23:00:35.700Z,8.39
2019-02-19T23:03:03.146Z,8.04
2019-02-19T23:05:30.673Z,8.05
2019-02-19T23:07:58.110Z,7.81
2019-02-19T23:10:25.585Z,8.05
2019-02-19T23:12:53.071Z,7.83
2019-02-19T23:15:20.516Z,8.03
2019-02-19T23:17:47.953Z,7.88
2019-02-19T23:20:15.437Z,7.91
2019-02-19T23:22:42.879Z,7.86
2019-02-19T23:25:10.322Z,7.78
2019-02-19T23:27:37.815Z,7.51
2019-02-19T23:30:05.260Z,7.83
2019-02-19T23:32:32.711Z,7.94
2019-02-19T23:35:06.065Z,7.85
2019-02-19T23:37:33.545Z,7.59
2019-02-19T23:40:01.022Z,7.75
2019-02-19T23:42:28.494Z,7.39
2019-02-19T23:44:55.951Z,7.82
2019-02-19T23:47:23.405Z,7.43
2019-02-19T23:49:50.844Z,7.73
2019-02-19T23:52:18.272Z,7.57
2019-02-19T23:54:46.260Z,7.45
2019-02-19T23:57:13.707Z,7.44
2019-02-19T23:59:41.159Z,7.49
